Time;durP1;ratioP1;P1;durP2;ratioP2;P2;SDS_P1;SDS_P2;PMS_P1;PMS_P2;Temp;Humidity;BMP_temperature;BMP_pressure;BME280_temperature;BME280_humidity;BME280_pressure;Samples;Min_cycle;Max_cycle;Signal;HPM_P1;HPM_P2
2023/06/22 00:00:33;;;;;;;;;;;;;;;;;;5032334;28;19951;-78
2023/06/22 00:03:00;;;;;;;;;;;;;;;;;;5032327;28;19931;-78
2023/06/22 00:05:27;;;;;;;;;;;;;;;;;;5032183;28;19929;-78
2023/06/22 00:07:53;;;;;;;;;;;;;;;;;;5032458;28;19925;-77
2023/06/22 00:10:20;;;;;;;;;;;;;;;;;;5032573;28;19925;-78
2023/06/22 00:12:46;;;;;;;;;;;;;;;;;;5032442;28;19940;-78
2023/06/22 00:15:12;;;;;;;;;;;;;;;;;;5032638;28;19925;-78
2023/06/22 00:17:39;;;;;;;;;;;;;;;;;;5032353;28;20300;-78
2023/06/22 00:20:10;;;;;;;;;;;;;;;;;;5031665;28;19925;-78
2023/06/22 00:22:38;;;;;;;;;;;;;;;;;;5032370;28;19925;-78
2023/06/22 00:25:05;;;;;;;;;;;;;;;;;;5032325;28;19932;-78
2023/06/22 00:27:32;;;;;;;;;;;;;;;;;;5032118;28;19936;-77
2023/06/22 00:29:58;;;;;;;;;;;;;;;;;;5031950;28;19980;-77
2023/06/22 00:32:24;;;;;;;;;;;;;;;;;;5031935;28;19925;-78
2023/06/22 00:34:51;;;;;;;;;;;;;;;;;;5032821;28;20016;-77
2023/06/22 00:37:19;;;;;;;;;;;;;;;;;;5032235;28;19939;-79
2023/06/22 00:39:45;;;;;;;;;;;;;;;;;;5031400;28;19925;-78
2023/06/22 00:42:11;;;;;;;;;;;;;;;;;;5032690;28;20384;-77
2023/06/22 00:44:38;;;;;;;;;;;;;;;;;;5031613;28;19929;-78
2023/06/22 00:47:04;;;;;;;;;;;;;;;;;;5031898;28;19936;-78
2023/06/22 00:49:31;;;;;;;;;;;;;;;;;;5031667;28;20020;-79
2023/06/22 00:51:58;;;;;;;;;;;;;;;;;;5031746;28;20323;-78
2023/06/22 00:54:26;;;;;;;;;;;;;;;;;;5031495;28;19925;-78
2023/06/22 00:56:54;;;;;;;;;;;;;;;;;;5031433;28;19925;-78
2023/06/22 00:59:21;;;;;;;;;;;;;;;;;;5032071;28;19925;-78
2023/06/22 01:01:47;;;;;;;;;;;;;;;;;;5031658;28;19929;-78
2023/06/22 01:04:13;;;;;;;;;;;;;;;;;;5031581;28;19937;-78
2023/06/22 01:06:44;;;;;;;;;;;;;;;;;;5031684;28;19925;-78
2023/06/22 01:09:16;;;;;;;;;;;;;;;;;;5031464;28;19932;-78
2023/06/22 01:11:46;;;;;;;;;;;;;;;;;;5031662;28;19971;-77
2023/06/22 01:14:15;;;;;;;;;;;;;;;;;;5031506;28;19925;-78
2023/06/22 01:16:42;;;;;;;;;;;;;;;;;;5031438;28;20409;-78
2023/06/22 01:19:18;;;;;;;;;;;;;;;;;;5031989;28;19995;-78
2023/06/22 01:21:46;;;;;;;;;;;;;;;;;;5031830;28;19957;-78
2023/06/22 01:24:16;;;;;;;;;;;;;;;;;;5034670;28;19961;-78
2023/06/22 01:26:52;;;;;;;;;;;;;;;;;;5036545;28;19967;-78
2023/06/22 01:29:20;;;;;;;;;;;;;;;;;;5033624;28;20024;-78
2023/06/22 01:31:48;;;;;;;;;;;;;;;;;;5030962;28;19925;-78
2023/06/22 01:34:15;;;;;;;;;;;;;;;;;;5031542;28;19925;-78
2023/06/22 01:36:42;;;;;;;;;;;;;;;;;;5031008;28;19925;-78
2023/06/22 01:39:09;;;;;;;;;;;;;;;;;;5031356;28;19936;-78
2023/06/22 01:41:36;;;;;;;;;;;;;;;;;;5030941;28;20297;-77
2023/06/22 01:44:04;;;;;;;;;;;;;;;;;;5031651;28;19932;-78
2023/06/22 01:46:32;;;;;;;;;;;;;;;;;;5031459;28;19925;-78
2023/06/22 01:48:58;;;;;;;;;;;;;;;;;;5031606;28;19929;-78
2023/06/22 01:51:25;;;;;;;;;;;;;;;;;;5030943;28;19925;-78
2023/06/22 01:53:51;;;;;;;;;;;;;;;;;;5031793;28;19925;-78
2023/06/22 01:56:18;;;;;;;;;;;;;;;;;;5031499;28;19929;-78
2023/06/22 01:58:48;;;;;;;;;;;;;;;;;;5031054;28;19925;-78
2023/06/22 02:01:17;;;;;;;;;;;;;;;;;;5030903;28;19932;-78
2023/06/22 02:03:49;;;;;;;;;;;;;;;;;;5034052;28;19935;-77
2023/06/22 02:06:17;;;;;;;;;;;;;;;;;;5034523;28;19925;-78
2023/06/22 02:08:48;;;;;;;;;;;;;;;;;;5034414;28;20403;-78
2023/06/22 02:11:15;;;;;;;;;;;;;;;;;;5034329;28;20015;-79
2023/06/22 02:13:43;;;;;;;;;;;;;;;;;;5034180;28;20001;-78
2023/06/22 02:16:09;;;;;;;;;;;;;;;;;;5034218;28;19926;-79
2023/06/22 02:18:36;;;;;;;;;;;;;;;;;;5033745;28;19925;-78
2023/06/22 02:21:04;;;;;;;;;;;;;;;;;;5034643;28;19929;-78
2023/06/22 02:23:32;;;;;;;;;;;;;;;;;;5034151;28;19925;-78
2023/06/22 02:25:59;;;;;;;;;;;;;;;;;;5034065;28;19929;-78
2023/06/22 02:28:25;;;;;;;;;;;;;;;;;;5033159;28;19925;-78
2023/06/22 02:30:51;;;;;;;;;;;;;;;;;;5033733;28;19929;-78
2023/06/22 02:33:18;;;;;;;;;;;;;;;;;;5034034;28;19929;-78
2023/06/22 02:35:48;;;;;;;;;;;;;;;;;;5034080;28;19925;-78
2023/06/22 02:38:17;;;;;;;;;;;;;;;;;;5034344;28;20223;-78
2023/06/22 02:40:44;;;;;;;;;;;;;;;;;;5033403;28;19925;-77
2023/06/22 02:43:10;;;;;;;;;;;;;;;;;;5034413;28;19929;-77
2023/06/22 02:45:36;;;;;;;;;;;;;;;;;;5033446;28;19925;-78
2023/06/22 02:48:03;;;;;;;;;;;;;;;;;;5033811;28;20286;-77
2023/06/22 02:50:29;;;;;;;;;;;;;;;;;;5033439;28;20377;-78
2023/06/22 02:52:56;;;;;;;;;;;;;;;;;;5034356;28;19932;-78
2023/06/22 02:55:24;;;;;;;;;;;;;;;;;;5033739;28;19925;-78
2023/06/22 02:57:52;;;;;;;;;;;;;;;;;;5033898;28;19925;-77
2023/06/22 03:00:19;;;;;;;;;;;;;;;;;;5033500;28;20312;-77
2023/06/22 03:02:46;;;;;;;;;;;;;;;;;;5034026;28;19929;-77
2023/06/22 03:05:13;;;;;;;;;;;;;;;;;;5033829;28;19932;-77
2023/06/22 03:07:40;;;;;;;;;;;;;;;;;;5033568;28;19972;-77
2023/06/22 03:10:07;;;;;;;;;;;;;;;;;;5033682;28;20017;-77
2023/06/22 03:12:34;;;;;;;;;;;;;;;;;;5034061;28;19947;-80
2023/06/22 03:15:01;;;;;;;;;;;;;;;;;;5033781;28;19925;-79
2023/06/22 03:17:27;;;;;;;;;;;;;;;;;;5034039;28;20265;-79
2023/06/22 03:19:54;;;;;;;;;;;;;;;;;;5034215;28;19925;-77
2023/06/22 03:22:20;;;;;;;;;;;;;;;;;;5033902;28;19967;-78
2023/06/22 03:24:46;;;;;;;;;;;;;;;;;;5034613;28;19932;-79
2023/06/22 03:27:13;;;;;;;;;;;;;;;;;;5034321;28;19925;-80
2023/06/22 03:29:40;;;;;;;;;;;;;;;;;;5033856;28;19931;-79
2023/06/22 03:32:07;;;;;;;;;;;;;;;;;;5034064;28;19925;-79
2023/06/22 03:34:34;;;;;;;;;;;;;;;;;;5034157;28;19925;-78
2023/06/22 03:37:00;;;;;;;;;;;;;;;;;;5033418;28;19925;-80
2023/06/22 03:39:27;;;;;;;;;;;;;;;;;;5033784;28;19925;-79
2023/06/22 03:41:53;;;;;;;;;;;;;;;;;;5033282;28;19925;-79
2023/06/22 03:44:19;;;;;;;;;;;;;;;;;;5033694;28;19935;-79
2023/06/22 03:46:47;;;;;;;;;;;;;;;;;;5033944;28;19925;-79
2023/06/22 03:49:13;;;;;;;;;;;;;;;;;;5033473;28;19925;-79
2023/06/22 03:51:40;;;;;;;;;;;;;;;;;;5033556;28;19925;-79
2023/06/22 03:54:06;;;;;;;;;;;;;;;;;;5034449;28;19960;-79
2023/06/22 03:56:33;;;;;;;;;;;;;;;;;;5033967;28;19951;-79
2023/06/22 03:58:59;;;;;;;;;;;;;;;;;;5033246;28;19925;-79
2023/06/22 04:01:25;;;;;;;;;;;;;;;;;;5033550;28;19925;-79
2023/06/22 04:03:53;;;;;;;;;;;;;;;;;;5033455;28;19986;-79
2023/06/22 04:06:19;;;;;;;;;;;;;;;;;;5033809;28;19932;-79
2023/06/22 04:08:48;;;;;;;;;;;;;;;;;;5034593;28;19932;-79
2023/06/22 04:11:14;;;;;;;;;;;;;;;;;;5035029;28;19972;-79
2023/06/22 04:13:40;;;;;;;;;;;;;;;;;;5036097;28;19925;-79
2023/06/22 04:16:07;;;;;;;;;;;;;;;;;;5045693;28;19980;-78
2023/06/22 04:18:33;;;;;;;;;;;;;;;;;;5049618;28;19925;-79
2023/06/22 04:21:01;;;;;;;;;;;;;;;;;;5048571;28;19931;-78
2023/06/22 04:23:27;;;;;;;;;;;;;;;;;;5049204;28;19925;-79
2023/06/22 04:25:56;;;;;;;;;;;;;;;;;;5048461;28;19992;-78
2023/06/22 04:28:22;;;;;;;;;;;;;;;;;;5043665;28;19933;-80
2023/06/22 04:30:50;;;;;;;;;;;;;;;;;;5041578;28;19936;-78
2023/06/22 04:33:17;;;;;;;;;;;;;;;;;;5041257;28;19940;-77
2023/06/22 04:35:45;;;;;;;;;;;;;;;;;;5041534;28;20024;-77
2023/06/22 04:38:14;;;;;;;;;;;;;;;;;;5042943;28;19935;-77
2023/06/22 04:40:40;;;;;;;;;;;;;;;;;;5042739;28;20470;-79
2023/06/22 04:43:06;;;;;;;;;;;;;;;;;;5040775;28;19932;-77
2023/06/22 04:45:33;;;;;;;;;;;;;;;;;;5034626;28;19929;-78
2023/06/22 04:48:00;;;;;;;;;;;;;;;;;;5032944;28;19925;-77
2023/06/22 04:50:26;;;;;;;;;;;;;;;;;;5032344;28;19925;-78
2023/06/22 04:52:52;;;;;;;;;;;;;;;;;;5033345;28;20323;-78
2023/06/22 04:55:20;;;;;;;;;;;;;;;;;;5033620;28;19932;-78
2023/06/22 04:57:48;;;;;;;;;;;;;;;;;;5032905;28;19931;-78
2023/06/22 05:00:17;;;;;;;;;;;;;;;;;;5033265;28;19925;-78
2023/06/22 05:02:44;;;;;;;;;;;;;;;;;;5034276;28;20012;-78
2023/06/22 05:05:13;;;;;;;;;;;;;;;;;;5034692;28;19925;-78
2023/06/22 05:07:42;;;;;;;;;;;;;;;;;;5033600;28;20350;-79
2023/06/22 05:10:09;;;;;;;;;;;;;;;;;;5034017;28;19929;-79
2023/06/22 05:12:37;;;;;;;;;;;;;;;;;;5034247;28;19925;-79
2023/06/22 05:15:04;;;;;;;;;;;;;;;;;;5035040;28;20079;-79
2023/06/22 05:17:30;;;;;;;;;;;;;;;;;;5033856;28;19925;-78
2023/06/22 05:19:56;;;;;;;;;;;;;;;;;;5033748;28;20448;-79
2023/06/22 05:22:23;;;;;;;;;;;;;;;;;;5034647;28;19951;-79
2023/06/22 05:25:16;;;;;;;;;;;;;;;;;;5036781;28;19935;-78
2023/06/22 05:27:44;;;;;;;;;;;;;;;;;;4997700;28;19931;-79
2023/06/22 05:30:11;;;;;;;;;;;;;;;;;;5033360;28;20391;-78
2023/06/22 05:32:37;;;;;;;;;;;;;;;;;;5034613;28;20023;-79
2023/06/22 05:35:04;;;;;;;;;;;;;;;;;;5034278;28;20011;-78
2023/06/22 05:37:31;;;;;;;;;;;;;;;;;;5037559;28;19932;-78
2023/06/22 05:39:58;;;;;;;;;;;;;;;;;;5036378;28;20300;-78
2023/06/22 05:42:25;;;;;;;;;;;;;;;;;;5036872;28;20416;-80
2023/06/22 05:44:53;;;;;;;;;;;;;;;;;;5036715;28;19971;-79
2023/06/22 05:47:19;;;;;;;;;;;;;;;;;;5037169;28;19935;-79
2023/06/22 05:49:46;;;;;;;;;;;;;;;;;;5039647;28;20194;-80
2023/06/22 05:52:12;;;;;;;;;;;;;;;;;;5037166;28;19925;-80
2023/06/22 05:54:39;;;;;;;;;;;;;;;;;;5036970;28;19925;-78
2023/06/22 05:57:05;;;;;;;;;;;;;;;;;;5042195;28;19925;-80
2023/06/22 05:59:32;;;;;;;;;;;;;;;;;;5046101;28;19925;-80
2023/06/22 06:02:00;;;;;;;;;;;;;;;;;;5047933;28;20327;-79
2023/06/22 06:04:26;;;;;;;;;;;;;;;;;;5043905;28;19971;-80
2023/06/22 06:06:53;;;;;;;;;;;;;;;;;;5043605;28;19925;-79
2023/06/22 06:09:19;;;;;;;;;;;;;;;;;;5046070;28;19929;-80
2023/06/22 06:11:46;;;;;;;;;;;;;;;;;;5043261;28;20297;-78
2023/06/22 06:14:12;;;;;;;;;;;;;;;;;;5043084;28;19925;-78
2023/06/22 06:16:39;;;;;;;;;;;;;;;;;;5043081;28;19932;-79
2023/06/22 06:19:07;;;;;;;;;;;;;;;;;;5043943;28;19925;-79
2023/06/22 06:21:34;;;;;;;;;;;;;;;;;;5045366;28;19937;-79
2023/06/22 06:24:00;;;;;;;;;;;;;;;;;;5044193;28;20380;-79
2023/06/22 06:26:29;;;;;;;;;;;;;;;;;;5042929;28;19929;-80
2023/06/22 06:28:56;;;;;;;;;;;;;;;;;;5042243;28;20090;-80
2023/06/22 06:31:23;;;;;;;;;;;;;;;;;;5041197;28;19948;-79
2023/06/22 06:33:49;;;;;;;;;;;;;;;;;;5041888;28;20289;-80
2023/06/22 06:36:17;;;;;;;;;;;;;;;;;;5036764;28;19932;-80
2023/06/22 06:38:43;;;;;;;;;;;;;;;;;;5036148;28;19937;-80
2023/06/22 06:41:10;;;;;;;;;;;;;;;;;;5035569;28;19929;-81
2023/06/22 06:43:36;;;;;;;;;;;;;;;;;;5036680;28;19929;-80
2023/06/22 06:46:03;;;;;;;;;;;;;;;;;;5040910;28;20418;-79
2023/06/22 06:48:29;;;;;;;;;;;;;;;;;;5043462;28;19925;-79
2023/06/22 06:50:56;;;;;;;;;;;;;;;;;;5043864;28;19964;-79
2023/06/22 06:53:24;;;;;;;;;;;;;;;;;;5044150;28;20019;-80
2023/06/22 06:55:50;;;;;;;;;;;;;;;;;;5043041;28;19968;-80
2023/06/22 06:58:17;;;;;;;;;;;;;;;;;;5043959;28;19933;-79
2023/06/22 07:00:44;;;;;;;;;;;;;;;;;;5044459;28;19925;-79
2023/06/22 07:03:11;;;;;;;;;;;;;;;;;;5043693;28;19983;-79
2023/06/22 07:05:38;;;;;;;;;;;;;;;;;;5044181;28;20472;-79
2023/06/22 07:08:05;;;;;;;;;;;;;;;;;;5044483;28;19925;-80
2023/06/22 07:10:32;;;;;;;;;;;;;;;;;;5042238;28;19991;-80
2023/06/22 07:12:59;;;;;;;;;;;;;;;;;;5035440;28;19925;-80
2023/06/22 07:15:25;;;;;;;;;;;;;;;;;;5036865;28;19935;-79
2023/06/22 07:17:52;;;;;;;;;;;;;;;;;;5042830;28;19925;-80
2023/06/22 07:20:19;;;;;;;;;;;;;;;;;;5042242;28;19965;-78
2023/06/22 07:22:46;;;;;;;;;;;;;;;;;;5040925;28;19989;-79
2023/06/22 07:25:15;;;;;;;;;;;;;;;;;;5040494;28;19952;-79
2023/06/22 07:27:45;;;;;;;;;;;;;;;;;;5039295;28;20403;-78
2023/06/22 07:30:15;;;;;;;;;;;;;;;;;;5038986;28;19925;-79
2023/06/22 07:32:42;;;;;;;;;;;;;;;;;;5037085;28;19929;-79
2023/06/22 07:35:09;;;;;;;;;;;;;;;;;;5034466;28;20373;-79
2023/06/22 07:37:35;;;;;;;;;;;;;;;;;;5035403;28;19926;-79
2023/06/22 07:40:04;;;;;;;;;;;;;;;;;;5034815;28;19929;-79
2023/06/22 07:42:33;;;;;;;;;;;;;;;;;;5039865;28;19925;-79
2023/06/22 07:45:01;;;;;;;;;;;;;;;;;;5038687;28;19989;-79
2023/06/22 07:47:28;;;;;;;;;;;;;;;;;;5037694;28;19987;-79
2023/06/22 07:49:57;;;;;;;;;;;;;;;;;;5038681;28;20326;-80
2023/06/22 07:52:23;;;;;;;;;;;;;;;;;;5036126;28;20024;-80
2023/06/22 07:54:50;;;;;;;;;;;;;;;;;;5036333;28;19929;-80
2023/06/22 07:57:16;;;;;;;;;;;;;;;;;;5036592;28;19925;-79
2023/06/22 07:59:43;;;;;;;;;;;;;;;;;;5037521;28;19935;-79
2023/06/22 08:02:10;;;;;;;;;;;;;;;;;;5039801;28;19925;-79
2023/06/22 08:04:37;;;;;;;;;;;;;;;;;;5036433;28;19925;-79
2023/06/22 08:07:03;;;;;;;;;;;;;;;;;;5032887;28;19925;-80
2023/06/22 08:09:31;;;;;;;;;;;;;;;;;;5033852;28;19925;-80
2023/06/22 08:11:57;;;;;;;;;;;;;;;;;;5034070;28;20408;-79
2023/06/22 08:14:24;;;;;;;;;;;;;;;;;;5034213;28;19932;-80
2023/06/22 08:16:51;;;;;;;;;;;;;;;;;;5034478;28;19936;-79
2023/06/22 08:19:18;;;;;;;;;;;;;;;;;;5034276;28;19936;-79
2023/06/22 08:21:45;;;;;;;;;;;;;;;;;;5034532;28;19947;-78
2023/06/22 08:24:11;;;;;;;;;;;;;;;;;;5034093;28;19931;-79
2023/06/22 08:26:38;;;;;;;;;;;;;;;;;;5034910;28;19935;-80
2023/06/22 08:29:04;;;;;;;;;;;;;;;;;;5034683;28;19929;-80
2023/06/22 08:31:31;;;;;;;;;;;;;;;;;;5040436;28;20021;-80
2023/06/22 08:33:58;;;;;;;;;;;;;;;;;;5037607;28;19928;-80
2023/06/22 08:36:30;;;;;;;;;;;;;;;;;;5034679;28;19925;-80
2023/06/22 08:38:57;;;;;;;;;;;;;;;;;;5032551;28;19936;-80
2023/06/22 08:41:25;;;;;;;;;;;;;;;;;;5036170;28;20091;-80
2023/06/22 08:43:52;;;;;;;;;;;;;;;;;;5036239;28;19979;-80
2023/06/22 08:46:22;;;;;;;;;;;;;;;;;;5034216;28;19925;-80
2023/06/22 08:48:50;;;;;;;;;;;;;;;;;;5034332;28;19925;-80
2023/06/22 08:51:16;;;;;;;;;;;;;;;;;;5034251;28;19925;-79
2023/06/22 08:53:45;;;;;;;;;;;;;;;;;;5034563;28;19947;-78
2023/06/22 08:56:11;;;;;;;;;;;;;;;;;;5034220;28;19933;-80
2023/06/22 08:58:37;;;;;;;;;;;;;;;;;;5034450;28;19925;-79
2023/06/22 09:01:04;;;;;;;;;;;;;;;;;;5032828;28;19929;-78
2023/06/22 09:03:32;;;;;;;;;;;;;;;;;;5034862;28;19929;-79
2023/06/22 09:05:58;;;;;;;;;;;;;;;;;;5033943;28;19925;-80
2023/06/22 09:08:25;;;;;;;;;;;;;;;;;;5031878;28;19932;-78
2023/06/22 09:10:53;;;;;;;;;;;;;;;;;;5033847;28;19933;-80
2023/06/22 09:13:19;;;;;;;;;;;;;;;;;;5037769;28;19925;-80
2023/06/22 09:15:45;;;;;;;;;;;;;;;;;;5038161;28;19936;-79
2023/06/22 09:18:12;;;;;;;;;;;;;;;;;;5037146;28;20373;-79
2023/06/22 09:20:38;;;;;;;;;;;;;;;;;;5037500;28;19988;-80
2023/06/22 09:23:05;;;;;;;;;;;;;;;;;;5038172;28;19925;-80
2023/06/22 09:25:31;;;;;;;;;;;;;;;;;;5038383;28;19935;-80
2023/06/22 09:28:00;;;;;;;;;;;;;;;;;;5042736;28;19926;-78
2023/06/22 09:30:26;;;;;;;;;;;;;;;;;;5039175;28;20008;-80
2023/06/22 09:32:54;;;;;;;;;;;;;;;;;;5038268;28;19925;-80
2023/06/22 09:35:20;;;;;;;;;;;;;;;;;;5037745;28;19925;-79
2023/06/22 09:37:46;;;;;;;;;;;;;;;;;;5037886;28;19925;-79
2023/06/22 09:40:15;;;;;;;;;;;;;;;;;;5036951;28;19932;-80
2023/06/22 09:42:42;;;;;;;;;;;;;;;;;;5038983;28;20012;-81
2023/06/22 09:45:10;;;;;;;;;;;;;;;;;;5037982;28;20007;-81
2023/06/22 09:47:37;;;;;;;;;;;;;;;;;;5035936;28;20467;-81
2023/06/22 09:50:03;;;;;;;;;;;;;;;;;;5037042;28;20299;-81
2023/06/22 09:52:30;;;;;;;;;;;;;;;;;;5037460;28;19935;-80
2023/06/22 09:54:56;;;;;;;;;;;;;;;;;;5037173;28;20319;-81
2023/06/22 09:57:22;;;;;;;;;;;;;;;;;;5037640;28;19925;-80
2023/06/22 09:59:49;;;;;;;;;;;;;;;;;;5036443;28;19926;-80
2023/06/22 10:02:17;;;;;;;;;;;;;;;;;;5037162;28;19935;-78
2023/06/22 10:04:43;;;;;;;;;;;;;;;;;;5036990;28;20351;-81
2023/06/22 10:07:09;;;;;;;;;;;;;;;;;;5036646;28;19929;-81
2023/06/22 10:09:36;;;;;;;;;;;;;;;;;;5036547;28;19925;-80
2023/06/22 10:12:02;;;;;;;;;;;;;;;;;;5036906;28;19935;-80
2023/06/22 10:14:29;;;;;;;;;;;;;;;;;;5037022;28;19925;-80
2023/06/22 10:16:56;;;;;;;;;;;;;;;;;;5035977;28;20397;-81
2023/06/22 10:19:23;;;;;;;;;;;;;;;;;;5035659;28;19929;-81
2023/06/22 10:21:50;;;;;;;;;;;;;;;;;;5037239;28;19925;-80
2023/06/22 10:24:16;;;;;;;;;;;;;;;;;;5035533;28;19929;-81
2023/06/22 10:26:42;;;;;;;;;;;;;;;;;;5037129;28;19925;-81
2023/06/22 10:29:09;;;;;;;;;;;;;;;;;;5036149;28;19926;-80
2023/06/22 10:31:35;;;;;;;;;;;;;;;;;;5035532;28;19925;-81
2023/06/22 10:34:02;;;;;;;;;;;;;;;;;;5036173;28;19929;-81
2023/06/22 10:36:29;;;;;;;;;;;;;;;;;;5037180;28;19925;-81
2023/06/22 10:38:58;;;;;;;;;;;;;;;;;;5036750;28;19936;-79
2023/06/22 10:41:24;;;;;;;;;;;;;;;;;;5036660;28;19926;-79
2023/06/22 10:43:51;;;;;;;;;;;;;;;;;;5036625;28;20282;-80
2023/06/22 10:46:17;;;;;;;;;;;;;;;;;;5036228;28;19936;-80
2023/06/22 10:48:44;;;;;;;;;;;;;;;;;;5036793;28;19925;-80
2023/06/22 10:51:10;;;;;;;;;;;;;;;;;;5036265;28;19931;-79
2023/06/22 10:53:38;;;;;;;;;;;;;;;;;;5036388;28;20356;-80
2023/06/22 10:56:04;;;;;;;;;;;;;;;;;;5036385;28;19925;-79
2023/06/22 10:58:31;;;;;;;;;;;;;;;;;;5036875;28;19925;-79
2023/06/22 11:00:58;;;;;;;;;;;;;;;;;;5035973;28;19925;-78
2023/06/22 11:03:25;;;;;;;;;;;;;;;;;;5036888;28;19925;-79
2023/06/22 11:05:51;;;;;;;;;;;;;;;;;;5037557;28;19925;-80
2023/06/22 11:08:17;;;;;;;;;;;;;;;;;;5037042;28;19932;-79
2023/06/22 11:10:45;;;;;;;;;;;;;;;;;;5037037;28;19925;-80
2023/06/22 11:13:12;;;;;;;;;;;;;;;;;;5037394;28;19931;-80
2023/06/22 11:15:39;;;;;;;;;;;;;;;;;;5035860;28;19925;-80
2023/06/22 11:18:06;;;;;;;;;;;;;;;;;;5037058;28;19925;-79
2023/06/22 11:20:34;;;;;;;;;;;;;;;;;;5039155;28;19929;-79
2023/06/22 11:23:00;;;;;;;;;;;;;;;;;;5037358;28;19932;-80
2023/06/22 11:25:28;;;;;;;;;;;;;;;;;;5037403;28;19931;-80
2023/06/22 11:27:56;;;;;;;;;;;;;;;;;;5036505;28;19925;-80
2023/06/22 11:30:23;;;;;;;;;;;;;;;;;;5034857;28;19929;-80
2023/06/22 11:32:49;;;;;;;;;;;;;;;;;;5036842;28;19925;-77
2023/06/22 11:35:15;;;;;;;;;;;;;;;;;;5037507;28;19925;-77
2023/06/22 11:37:43;;;;;;;;;;;;;;;;;;5037970;28;20135;-78
2023/06/22 11:40:10;;;;;;;;;;;;;;;;;;5035929;28;19935;-79
2023/06/22 11:42:37;;;;;;;;;;;;;;;;;;5035182;28;19925;-79
2023/06/22 11:45:06;;;;;;;;;;;;;;;;;;5035492;28;19929;-79
2023/06/22 11:47:33;;;;;;;;;;;;;;;;;;5035458;28;19968;-79
2023/06/22 11:49:59;;;;;;;;;;;;;;;;;;5034965;28;20011;-79
2023/06/22 11:52:27;;;;;;;;;;;;;;;;;;5035149;28;20454;-79
2023/06/22 11:54:53;;;;;;;;;;;;;;;;;;5034756;28;19937;-79
2023/06/22 11:57:19;;;;;;;;;;;;;;;;;;5034869;28;19937;-78
2023/06/22 11:59:46;;;;;;;;;;;;;;;;;;5036877;28;20324;-79
2023/06/22 12:02:14;;;;;;;;;;;;;;;;;;5036789;28;20113;-79
2023/06/22 12:04:40;;;;;;;;;;;;;;;;;;5036004;28;20300;-81
2023/06/22 12:07:06;;;;;;;;;;;;;;;;;;5035281;28;19953;-80
2023/06/22 12:09:33;;;;;;;;;;;;;;;;;;5034275;28;20487;-80
2023/06/22 12:11:59;;;;;;;;;;;;;;;;;;5035210;28;19925;-80
2023/06/22 12:14:26;;;;;;;;;;;;;;;;;;5034177;28;19931;-79
2023/06/22 12:16:52;;;;;;;;;;;;;;;;;;5034679;28;19972;-79
2023/06/22 12:19:20;;;;;;;;;;;;;;;;;;5034495;28;19932;-79
2023/06/22 12:21:46;;;;;;;;;;;;;;;;;;5033713;28;20093;-78
2023/06/22 12:24:12;;;;;;;;;;;;;;;;;;5033799;28;19925;-78
2023/06/22 12:26:39;;;;;;;;;;;;;;;;;;5033063;28;19925;-78
2023/06/22 12:29:05;;;;;;;;;;;;;;;;;;5033341;28;20347;-78
2023/06/22 12:31:31;;;;;;;;;;;;;;;;;;5032513;28;20052;-78
2023/06/22 12:33:58;;;;;;;;;;;;;;;;;;5033568;28;19932;-78
2023/06/22 12:36:26;;;;;;;;;;;;;;;;;;5032963;28;19976;-78
2023/06/22 12:38:52;;;;;;;;;;;;;;;;;;5033286;28;20321;-78
2023/06/22 12:41:19;;;;;;;;;;;;;;;;;;5032462;28;19925;-78
2023/06/22 12:43:45;;;;;;;;;;;;;;;;;;5032879;28;19961;-79
2023/06/22 12:46:11;;;;;;;;;;;;;;;;;;5032566;28;19925;-78
2023/06/22 12:48:42;;;;;;;;;;;;;;;;;;5033612;28;20340;-78
2023/06/22 12:51:08;;;;;;;;;;;;;;;;;;5032982;28;20023;-78
2023/06/22 12:53:36;;;;;;;;;;;;;;;;;;5033038;28;19948;-78
2023/06/22 12:56:03;;;;;;;;;;;;;;;;;;5033095;28;19925;-78
2023/06/22 12:58:29;;;;;;;;;;;;;;;;;;5032855;28;19926;-78
2023/06/22 13:00:55;;;;;;;;;;;;;;;;;;5032532;28;19926;-78
2023/06/22 13:03:24;;;;;;;;;;;;;;;;;;5032267;28;19931;-78
2023/06/22 13:05:50;;;;;;;;;;;;;;;;;;5032930;28;19925;-78
2023/06/22 13:08:16;;;;;;;;;;;;;;;;;;5032416;28;19925;-78
2023/06/22 13:10:44;;;;;;;;;;;;;;;;;;5032217;28;20393;-78
2023/06/22 13:13:10;;;;;;;;;;;;;;;;;;5031932;28;19933;-78
2023/06/22 13:15:37;;;;;;;;;;;;;;;;;;5032597;28;19925;-78
2023/06/22 13:18:03;;;;;;;;;;;;;;;;;;5032356;28;20004;-78
2023/06/22 13:20:30;;;;;;;;;;;;;;;;;;5031966;28;19932;-78
2023/06/22 13:22:56;;;;;;;;;;;;;;;;;;5032140;28;20367;-78
2023/06/22 13:25:26;;;;;;;;;;;;;;;;;;5032105;28;20022;-78
2023/06/22 13:27:54;;;;;;;;;;;;;;;;;;5032285;28;19978;-78
2023/06/22 13:30:20;;;;;;;;;;;;;;;;;;5033220;28;19987;-78
2023/06/22 13:32:46;;;;;;;;;;;;;;;;;;5033405;28;19925;-78
2023/06/22 13:35:13;;;;;;;;;;;;;;;;;;5033892;28;19932;-81
2023/06/22 13:37:39;;;;;;;;;;;;;;;;;;5033060;28;20345;-82
2023/06/22 13:40:06;;;;;;;;;;;;;;;;;;5032600;28;19929;-83
2023/06/22 13:42:33;;;;;;;;;;;;;;;;;;5033396;28;20389;-83
2023/06/22 13:45:01;;;;;;;;;;;;;;;;;;5033564;28;19925;-83
2023/06/22 13:47:27;;;;;;;;;;;;;;;;;;5032062;28;19925;-84
2023/06/22 13:49:53;;;;;;;;;;;;;;;;;;5032085;28;19955;-84
2023/06/22 13:52:19;;;;;;;;;;;;;;;;;;5033095;28;19925;-84
2023/06/22 13:54:45;;;;;;;;;;;;;;;;;;5033173;28;19929;-83
2023/06/22 13:57:12;;;;;;;;;;;;;;;;;;5035386;28;19947;-82
2023/06/22 13:59:38;;;;;;;;;;;;;;;;;;5042847;28;19968;-83
2023/06/22 14:02:04;;;;;;;;;;;;;;;;;;5043719;28;19925;-83
2023/06/22 14:04:30;;;;;;;;;;;;;;;;;;5044003;28;19931;-84
2023/06/22 14:06:56;;;;;;;;;;;;;;;;;;5042586;28;19931;-83
2023/06/22 14:09:23;;;;;;;;;;;;;;;;;;5037813;28;19960;-83
2023/06/22 14:11:49;;;;;;;;;;;;;;;;;;5039840;28;19932;-83
2023/06/22 14:14:15;;;;;;;;;;;;;;;;;;5038575;28;19929;-83
2023/06/22 14:16:41;;;;;;;;;;;;;;;;;;5038155;28;20196;-84
2023/06/22 14:19:07;;;;;;;;;;;;;;;;;;5039050;28;20415;-83
2023/06/22 14:21:34;;;;;;;;;;;;;;;;;;5037682;28;20039;-83
2023/06/22 14:24:00;;;;;;;;;;;;;;;;;;5038310;28;19929;-84
2023/06/22 14:26:26;;;;;;;;;;;;;;;;;;5038208;28;19925;-83
2023/06/22 14:28:52;;;;;;;;;;;;;;;;;;5038157;28;19925;-83
2023/06/22 14:31:19;;;;;;;;;;;;;;;;;;5037845;28;19932;-83
2023/06/22 14:33:45;;;;;;;;;;;;;;;;;;5038851;28;19925;-83
2023/06/22 14:36:11;;;;;;;;;;;;;;;;;;5038276;28;19932;-83
2023/06/22 14:38:37;;;;;;;;;;;;;;;;;;5038811;28;20015;-82
2023/06/22 14:41:03;;;;;;;;;;;;;;;;;;5038110;28;19954;-83
2023/06/22 14:43:30;;;;;;;;;;;;;;;;;;5038278;28;19925;-82
2023/06/22 14:45:56;;;;;;;;;;;;;;;;;;5038143;28;19929;-82
2023/06/22 14:48:22;;;;;;;;;;;;;;;;;;5039240;28;19925;-82
2023/06/22 14:50:48;;;;;;;;;;;;;;;;;;5042227;28;19932;-82
2023/06/22 14:53:15;;;;;;;;;;;;;;;;;;5044944;28;19925;-82
2023/06/22 14:55:42;;;;;;;;;;;;;;;;;;5039293;28;19925;-82
2023/06/22 14:58:10;;;;;;;;;;;;;;;;;;5036784;28;19925;-82
2023/06/22 15:00:37;;;;;;;;;;;;;;;;;;5036674;28;19925;-82
2023/06/22 15:03:05;;;;;;;;;;;;;;;;;;5036627;28;19932;-82
2023/06/22 15:05:31;;;;;;;;;;;;;;;;;;5038575;28;20404;-81
2023/06/22 15:07:57;;;;;;;;;;;;;;;;;;5037822;28;19988;-81
2023/06/22 15:10:24;;;;;;;;;;;;;;;;;;5038239;28;19931;-81
2023/06/22 15:12:50;;;;;;;;;;;;;;;;;;5037279;28;20328;-82
2023/06/22 15:15:16;;;;;;;;;;;;;;;;;;5036215;28;19930;-81
2023/06/22 15:17:43;;;;;;;;;;;;;;;;;;5036940;28;19956;-81
2023/06/22 15:20:09;;;;;;;;;;;;;;;;;;5036098;28;19967;-81
2023/06/22 15:22:35;;;;;;;;;;;;;;;;;;5037394;28;19932;-80
2023/06/22 15:25:03;;;;;;;;;;;;;;;;;;5038693;28;19987;-80
2023/06/22 15:27:29;;;;;;;;;;;;;;;;;;5037436;28;20383;-80
2023/06/22 15:29:56;;;;;;;;;;;;;;;;;;5043950;22;20278;-69
2023/06/22 15:32:22;;;;;;;;;;;;;;;;;;5040600;22;19925;-67
2023/06/22 15:34:49;;;;;;;;;;;;;;;;;;5031047;28;20400;-68
2023/06/22 15:37:16;;;;;;;;;;;;;;;;;;5031407;28;19979;-67
2023/06/22 15:39:42;;;;;;;;;;;;;;;;;;5031281;28;19925;-69
2023/06/22 15:42:10;;;;;;;;;;;;;;;;;;5030916;28;19925;-66
2023/06/22 15:44:37;;;;;;;;;;;;;;;;;;5031350;28;19949;-68
2023/06/22 15:47:03;;;;;;;;;;;;;;;;;;5012726;28;19932;-67
2023/06/22 15:49:29;;;;;;;;;;;;;;;;;;5011084;28;19925;-67
2023/06/22 15:51:56;;;;;;;;;;;;;;;;;;5011060;28;19925;-68
2023/06/22 15:54:22;;;;;;;;;;;;;;;;;;5011655;28;19925;-68
2023/06/22 15:56:49;;;;;;;;;;;;;;;;;;5011226;28;19929;-67
2023/06/22 15:59:16;;;;;;;;;;;;;;;;;;5011436;28;20024;-68
2023/06/22 16:01:43;;;;;;;;;;;;;;;;;;5010270;28;20326;-67
2023/06/22 16:04:09;;;;;;;;;;;;;;;;;;5011075;28;19930;-67
2023/06/22 16:06:36;;;;;;;;;;;;;;;;;;5011050;28;20359;-67
2023/06/22 16:09:03;;;;;;;;;;;;;;;;;;5011040;28;19969;-67
2023/06/22 16:11:30;;;;;;;;;;;;;;;;;;5011514;28;19988;-67
2023/06/22 16:13:56;;;;;;;;;;;;;;;;;;5010977;28;19980;-68
2023/06/22 16:16:24;;;;;;;;;;;;;;;;;;5008666;28;19931;-69
2023/06/22 16:18:50;;;;;;;;;;;;;;;;;;5010864;28;20352;-68
2023/06/22 16:21:17;;;;;;;;;;;;;;;;;;5010337;28;19926;-68
2023/06/22 16:23:43;;;;;;;;;;;;;;;;;;5010642;28;19930;-67
2023/06/22 16:26:09;;;;;;;;;;;;;;;;;;5011025;28;19925;-68
2023/06/22 16:28:36;;;;;;;;;;;;;;;;;;5010682;28;20299;-68
2023/06/22 16:31:02;;;;;;;;;;;;;;;;;;5010013;28;19933;-69
2023/06/22 16:33:30;;;;;;;;;;;;;;;;;;5010970;28;19925;-69
2023/06/22 16:35:56;;;;;;;;;;;;;;;;;;5010889;28;20024;-69
2023/06/22 16:38:23;;;;;;;;;;;;;;;;;;5010594;28;20000;-69
2023/06/22 16:40:49;;;;;;;;;;;;;;;;;;5010166;28;19926;-68
2023/06/22 16:43:15;;;;;;;;;;;;;;;;;;5010538;28;19925;-69